Time;durP1;ratioP1;P1;durP2;ratioP2;P2;SDS_P1;SDS_P2;PMS_P1;PMS_P2;Temp;Humidity;BMP_temperature;BMP_pressure;BME280_temperature;BME280_humidity;BME280_pressure;Samples;Min_cycle;Max_cycle;Signal;HPM_P1;HPM_P2
2023/03/06 00:00:22;;;;;;;1.93;1.77;;;;;1.80;95137.00;;;;5052158;28;20614;-67
2023/03/06 00:02:51;;;;;;;1.70;1.60;;;;;1.70;95134.00;;;;5054389;28;20192;-68
2023/03/06 00:05:19;;;;;;;24.47;2.13;;;;;1.80;95128.00;;;;5055888;28;20202;-68
2023/03/06 00:07:46;;;;;;;2.77;2.67;;;;;1.90;95134.00;;;;5055737;28;20192;-68
2023/03/06 00:10:16;;;;;;;1.90;1.80;;;;;1.90;95121.00;;;;5055999;28;20202;-65
2023/03/06 00:12:43;;;;;;;4.40;1.67;;;;;1.90;95123.00;;;;5055559;28;20625;-67
2023/03/06 00:15:12;;;;;;;1.67;1.57;;;;;2.00;95116.00;;;;5055137;28;20199;-65
2023/03/06 00:17:40;;;;;;;3.70;1.60;;;;;2.00;95121.00;;;;5055511;28;20211;-66
2023/03/06 00:20:11;;;;;;;2.07;1.97;;;;;2.00;95114.00;;;;5055508;28;20277;-65
2023/03/06 00:22:39;;;;;;;1.60;1.50;;;;;1.90;95116.00;;;;5055407;28;20173;-65
2023/03/06 00:25:08;;;;;;;1.87;1.77;;;;;1.90;95108.00;;;;5055694;28;20554;-68
2023/03/06 00:27:36;;;;;;;2.37;2.27;;;;;1.90;95101.00;;;;5055840;28;20192;-66
2023/03/06 00:30:04;;;;;;;3.80;1.80;;;;;1.80;95102.00;;;;5055569;28;20617;-66
2023/03/06 00:32:31;;;;;;;1.23;1.23;;;;;1.90;95104.00;;;;5055220;28;20219;-66
2023/03/06 00:34:59;;;;;;;2.87;2.60;;;;;1.60;95094.00;;;;5055518;28;20198;-66
2023/03/06 00:37:27;;;;;;;1.03;1.03;;;;;1.70;95095.00;;;;5055218;28;20200;-66
2023/03/06 00:39:55;;;;;;;2.33;2.13;;;;;1.80;95091.00;;;;5055348;28;20220;-66
2023/03/06 00:42:22;;;;;;;1.43;1.33;;;;;1.70;95093.00;;;;5055081;28;20193;-68
2023/03/06 00:44:50;;;;;;;2.10;1.80;;;;;1.70;95082.00;;;;5055190;28;20199;-66
2023/03/06 00:47:18;;;;;;;1.83;1.73;;;;;1.70;95086.00;;;;5055728;28;20223;-67
2023/03/06 00:49:45;;;;;;;1.70;1.60;;;;;1.60;95085.00;;;;5054935;28;20215;-67
2023/03/06 00:52:14;;;;;;;1.90;1.73;;;;;1.50;95088.00;;;;5055641;28;20279;-67
2023/03/06 00:54:43;;;;;;;1.83;1.73;;;;;1.60;95075.00;;;;5037363;28;20203;-67
2023/03/06 00:57:11;;;;;;;1.00;1.00;;;;;1.50;95078.00;;;;5054878;28;20527;-67
2023/03/06 00:59:38;;;;;;;1.83;1.73;;;;;1.50;95080.00;;;;5036901;28;20630;-67
2023/03/06 01:02:07;;;;;;;3.60;1.90;;;;;1.50;95077.00;;;;5054790;28;20658;-67
2023/03/06 01:04:34;;;;;;;0.97;0.97;;;;;1.50;95078.00;;;;5054761;28;20278;-67
2023/03/06 01:07:02;;;;;;;0.90;0.90;;;;;1.50;95071.00;;;;5054898;28;20199;-67
2023/03/06 01:09:29;;;;;;;3.03;1.93;;;;;1.50;95070.00;;;;5054639;28;20226;-67
2023/03/06 01:11:58;;;;;;;1.10;1.10;;;;;1.50;95074.00;;;;5054811;28;20265;-67
2023/03/06 01:14:26;;;;;;;1.40;1.40;;;;;1.50;95066.00;;;;5035585;28;20203;-67
2023/03/06 01:16:54;;;;;;;1.60;1.50;;;;;1.60;95061.00;;;;5054511;28;20192;-67
2023/03/06 01:19:21;;;;;;;2.47;2.17;;;;;1.70;95061.00;;;;5054468;28;20699;-67
2023/03/06 01:21:48;;;;;;;1.97;1.77;;;;;1.70;95063.00;;;;5054399;28;20191;-67
2023/03/06 01:24:16;;;;;;;1.03;1.03;;;;;1.60;95067.00;;;;5054532;28;20259;-67
2023/03/06 01:26:43;;;;;;;2.07;1.97;;;;;1.70;95056.00;;;;5054305;28;20203;-67
2023/03/06 01:29:12;;;;;;;1.10;1.10;;;;;1.60;95053.00;;;;5036370;28;20229;-67
2023/03/06 01:31:39;;;;;;;1.37;1.33;;;;;1.50;95048.00;;;;5054449;28;20554;-67
2023/03/06 01:34:07;;;;;;;1.00;1.00;;;;;1.50;95042.00;;;;5054268;28;20199;-66
2023/03/06 01:36:34;;;;;;;1.27;1.27;;;;;1.50;95037.00;;;;5054101;28;20195;-67
2023/03/06 01:39:02;;;;;;;2.03;1.93;;;;;1.50;95041.00;;;;5054311;28;20223;-67
2023/03/06 01:41:31;;;;;;;4.33;2.57;;;;;1.50;95047.00;;;;5054331;28;20203;-67
2023/03/06 01:43:58;;;;;;;1.47;1.37;;;;;1.50;95043.00;;;;5053975;28;20191;-67
2023/03/06 01:46:40;;;;;;;1.67;1.57;;;;;1.50;95032.00;;;;5053828;28;20229;-67
2023/03/06 01:49:12;;;;;;;2.37;2.17;;;;;1.10;95029.00;;;;5054439;28;20246;-67
2023/03/06 01:51:44;;;;;;;2.50;2.37;;;;;1.00;95016.00;;;;5053784;28;20183;-67
2023/03/06 01:54:15;;;;;;;2.17;2.07;;;;;1.10;95023.00;;;;5035991;28;20682;-67
2023/03/06 01:56:46;;;;;;;4.30;1.67;;;;;1.10;95020.00;;;;5053753;28;20188;-67
2023/03/06 01:59:13;;;;;;;2.07;1.43;;;;;1.10;95011.00;;;;5053784;28;20709;-67
2023/03/06 02:01:43;;;;;;;1.50;1.40;;;;;1.30;95011.00;;;;5053932;28;20262;-66
2023/03/06 02:04:11;;;;;;;2.07;1.97;;;;;1.40;95003.00;;;;5053574;28;20192;-67
2023/03/06 02:06:42;;;;;;;1.57;1.47;;;;;1.30;94998.00;;;;5053539;28;20283;-66
2023/03/06 02:09:11;;;;;;;2.10;2.00;;;;;1.30;94995.00;;;;5053450;28;20245;-66
2023/03/06 02:11:42;;;;;;;5.90;2.37;;;;;1.10;95005.00;;;;5053425;28;20555;-66
2023/03/06 02:14:11;;;;;;;1.60;1.50;;;;;1.20;94992.00;;;;5053517;28;20269;-66
2023/03/06 02:16:41;;;;;;;2.73;2.50;;;;;0.90;94992.00;;;;5053433;28;20246;-66
2023/03/06 02:19:21;;;;;;;3.70;1.77;;;;;1.00;94983.00;;;;5053213;28;20219;-65
2023/03/06 02:21:49;;;;;;;1.37;1.27;;;;;0.90;94980.00;;;;5053358;28;20245;-66
2023/03/06 02:24:34;;;;;;;1.50;1.40;;;;;1.00;94977.00;;;;5053285;28;20265;-66
2023/03/06 02:27:06;;;;;;;1.77;1.67;;;;;1.00;94979.00;;;;5053245;28;20260;-66
2023/03/06 02:29:34;;;;;;;1.30;1.17;;;;;0.90;94971.00;;;;5053153;28;20221;-66
2023/03/06 02:32:01;;;;;;;1.20;1.20;;;;;1.00;94969.00;;;;5053086;28;20218;-66
2023/03/06 02:34:50;;;;;;;1.20;1.20;;;;;1.00;94967.00;;;;5053353;28;20202;-66
2023/03/06 02:37:17;;;;;;;1.70;1.60;;;;;1.10;94962.00;;;;5035440;28;20198;-66
2023/03/06 02:39:49;;;;;;;22.30;3.03;;;;;1.10;94963.00;;;;5052941;28;20712;-66
2023/03/06 02:42:24;;;;;;;2.73;2.30;;;;;1.20;94975.00;;;;5053545;28;20175;-66
2023/03/06 02:44:53;;;;;;;2.43;2.20;;;;;1.30;94962.00;;;;5053293;28;20621;-67
2023/03/06 02:47:22;;;;;;;2.70;2.50;;;;;1.20;94965.00;;;;5053227;28;20290;-66
2023/03/06 02:49:49;;;;;;;0.93;0.93;;;;;1.00;94958.00;;;;5052837;28;20275;-66
2023/03/06 02:52:17;;;;;;;2.17;2.03;;;;;1.00;94957.00;;;;5052812;28;20214;-66
2023/03/06 02:54:44;;;;;;;1.60;1.50;;;;;1.00;94959.00;;;;5052838;28;20187;-66
2023/03/06 02:57:11;;;;;;;2.23;2.03;;;;;0.90;94951.00;;;;5052815;28;20199;-66
2023/03/06 02:59:40;;;;;;;3.10;1.83;;;;;0.90;94958.00;;;;5052832;28;20245;-66
2023/03/06 03:02:08;;;;;;;1.60;1.50;;;;;0.90;94951.00;;;;5052811;28;20574;-66
2023/03/06 03:04:35;;;;;;;2.73;2.53;;;;;0.90;94948.00;;;;5053011;28;20195;-66
2023/03/06 03:07:03;;;;;;;3.50;1.70;;;;;0.80;94953.00;;;;5052887;28;20255;-66
2023/03/06 03:09:35;;;;;;;1.57;1.47;;;;;0.80;94946.00;;;;5052672;28;20219;-66
2023/03/06 03:12:04;;;;;;;1.40;1.40;;;;;0.70;94946.00;;;;5052661;28;20665;-66
2023/03/06 03:14:31;;;;;;;2.03;1.67;;;;;0.70;94948.00;;;;5053203;28;20207;-67
2023/03/06 03:17:00;;;;;;;1.13;1.13;;;;;0.70;94930.00;;;;5052675;28;20193;-66
2023/03/06 03:19:31;;;;;;;1.77;1.70;;;;;0.80;94947.00;;;;5052598;28;20356;-66
2023/03/06 03:21:58;;;;;;;1.63;1.63;;;;;0.90;94933.00;;;;5052970;28;20190;-66
2023/03/06 03:24:26;;;;;;;1.70;1.60;;;;;1.10;94932.00;;;;5052555;28;20199;-66
2023/03/06 03:26:54;;;;;;;1.10;1.10;;;;;1.10;94946.00;;;;5052847;28;20249;-66
2023/03/06 03:29:21;;;;;;;1.30;1.30;;;;;1.00;94948.00;;;;5052600;28;20227;-66
2023/03/06 03:31:49;;;;;;;1.80;1.47;;;;;0.80;94942.00;;;;5052767;28;20210;-66
2023/03/06 03:34:18;;;;;;;1.00;1.00;;;;;0.80;94952.00;;;;5052653;28;20214;-66
2023/03/06 03:36:46;;;;;;;1.10;1.10;;;;;0.80;94946.00;;;;5053017;28;20277;-67
2023/03/06 03:39:13;;;;;;;1.90;1.57;;;;;0.90;94937.00;;;;5056120;28;20713;-66
2023/03/06 03:41:41;;;;;;;2.10;2.00;;;;;0.90;94930.00;;;;5056554;28;20649;-67
2023/03/06 03:44:08;;;;;;;2.10;2.00;;;;;0.90;94935.00;;;;5056181;28;20241;-67
2023/03/06 03:46:36;;;;;;;1.63;1.53;;;;;0.90;94925.00;;;;5056439;28;20665;-66
2023/03/06 03:49:04;;;;;;;1.60;1.50;;;;;0.80;94931.00;;;;5056103;28;20227;-66
2023/03/06 03:51:33;;;;;;;1.53;1.43;;;;;0.90;94930.00;;;;5056109;28;20673;-66
2023/03/06 03:54:01;;;;;;;3.50;1.63;;;;;0.90;94926.00;;;;5055935;28;20214;-66
2023/03/06 03:56:28;;;;;;;1.87;1.77;;;;;0.90;94924.00;;;;5038925;28;20223;-66
2023/03/06 03:58:56;;;;;;;1.60;1.50;;;;;0.90;94921.00;;;;5075714;22;20286;-61
2023/03/06 04:01:24;;;;;;;1.43;1.33;;;;;0.80;94927.00;;;;5058016;28;20293;-61
2023/03/06 04:03:51;;;;;;;1.23;1.23;;;;;0.70;94920.00;;;;5075953;28;20191;-61
2023/03/06 04:06:19;;;;;;;22.37;2.10;;;;;0.70;94915.00;;;;5074566;28;20195;-61
2023/03/06 04:08:48;;;;;;;1.90;1.80;;;;;0.70;94925.00;;;;5075677;28;20218;-60
2023/03/06 04:11:15;;;;;;;1.27;1.27;;;;;0.70;94918.00;;;;5076425;28;20196;-61
2023/03/06 04:13:43;;;;;;;1.73;1.63;;;;;0.70;94918.00;;;;5075776;28;20221;-61
2023/03/06 04:16:10;;;;;;;1.67;1.57;;;;;0.80;94908.00;;;;5057656;28;20201;-61
2023/03/06 04:18:38;;;;;;;2.00;1.87;;;;;0.90;94910.00;;;;5075473;28;20210;-61
2023/03/06 04:21:05;;;;;;;4.87;1.97;;;;;0.80;94902.00;;;;5076064;28;20190;-61
2023/03/06 04:23:33;;;;;;;1.20;1.20;;;;;0.80;94894.00;;;;5075545;28;20191;-63
2023/03/06 04:26:02;;;;;;;2.47;2.27;;;;;0.90;94890.00;;;;5076000;28;20190;-61
2023/03/06 04:28:29;;;;;;;1.53;1.43;;;;;0.90;94892.00;;;;5075324;28;20305;-61
2023/03/06 04:30:57;;;;;;;2.50;2.30;;;;;0.90;94882.00;;;;5075656;28;20202;-61
2023/03/06 04:33:24;;;;;;;1.97;1.73;;;;;0.90;94883.00;;;;5075616;28;20218;-61
2023/03/06 04:35:52;;;;;;;1.10;1.10;;;;;0.90;94889.00;;;;5075595;28;20285;-61
2023/03/06 04:38:19;;;;;;;1.90;1.80;;;;;0.90;94887.00;;;;5075102;28;20198;-61
2023/03/06 04:40:48;;;;;;;1.50;1.40;;;;;0.90;94885.00;;;;5075755;28;20191;-61
2023/03/06 04:43:17;;;;;;;3.20;1.43;;;;;0.80;94888.00;;;;5075063;28;20244;-61
2023/03/06 04:45:44;;;;;;;5.93;1.93;;;;;0.80;94886.00;;;;5075105;28;20202;-61
2023/03/06 04:48:14;;;;;;;1.47;1.40;;;;;0.80;94877.00;;;;5075017;28;20202;-61
2023/03/06 04:50:42;;;;;;;1.50;1.50;;;;;0.80;94876.00;;;;5074984;28;20194;-61
2023/03/06 04:53:09;;;;;;;1.70;1.57;;;;;0.80;94874.00;;;;5074982;28;20232;-61
2023/03/06 04:55:37;;;;;;;1.30;1.30;;;;;0.90;94872.00;;;;5057481;28;20661;-61
2023/03/06 04:58:04;;;;;;;1.63;1.53;;;;;0.80;94871.00;;;;5056878;28;20198;-61
2023/03/06 05:00:33;;;;;;;1.13;1.07;;;;;0.90;94876.00;;;;5075146;28;20248;-61
2023/03/06 05:03:02;;;;;;;2.00;1.87;;;;;0.90;94883.00;;;;5074761;28;20661;-61
2023/03/06 05:05:29;;;;;;;1.37;1.37;;;;;0.90;94878.00;;;;5074988;28;20199;-61
2023/03/06 05:07:57;;;;;;;1.73;1.60;;;;;0.90;94893.00;;;;5056743;28;20201;-62
2023/03/06 05:10:24;;;;;;;2.70;1.60;;;;;0.80;94878.00;;;;5074642;28;20218;-62
2023/03/06 05:12:52;;;;;;;3.50;2.00;;;;;0.60;94884.00;;;;5074859;28;20215;-62
2023/03/06 05:15:19;;;;;;;2.43;2.27;;;;;0.70;94842.00;;;;5074635;28;20203;-62
2023/03/06 05:17:48;;;;;;;1.57;1.50;;;;;0.70;94885.00;;;;5074783;28;20596;-59
2023/03/06 05:20:17;;;;;;;2.20;1.70;;;;;0.80;94876.00;;;;5074540;28;20716;-60
2023/03/06 05:22:44;;;;;;;1.40;1.40;;;;;0.80;94885.00;;;;5074916;28;20203;-59
2023/03/06 05:25:12;;;;;;;1.40;1.40;;;;;0.80;94878.00;;;;5074339;28;20191;-61
2023/03/06 05:27:40;;;;;;;2.53;1.87;;;;;0.90;94874.00;;;;5074331;28;20224;-61
2023/03/06 05:30:11;;;;;;;1.97;1.87;;;;;1.00;94879.00;;;;5074401;28;20230;-61
2023/03/06 05:32:38;;;;;;;1.50;1.43;;;;;1.00;94886.00;;;;5074162;28;20184;-61
2023/03/06 05:35:08;;;;;;;1.17;1.10;;;;;1.00;94877.00;;;;5074731;28;20352;-63
2023/03/06 05:37:35;;;;;;;3.53;2.20;;;;;1.10;94871.00;;;;5074189;28;20202;-61
2023/03/06 05:40:08;;;;;;;1.80;1.70;;;;;1.10;94868.00;;;;5073976;28;20213;-61
2023/03/06 05:42:35;;;;;;;1.60;1.37;;;;;1.10;94866.00;;;;5074248;28;20189;-61
2023/03/06 05:45:04;;;;;;;1.60;1.50;;;;;1.20;94872.00;;;;5073974;28;20187;-61
2023/03/06 05:47:31;;;;;;;1.57;1.47;;;;;1.10;94856.00;;;;5074138;28;20208;-61
2023/03/06 05:49:59;;;;;;;2.73;2.50;;;;;1.20;94859.00;;;;5073808;28;20218;-61
2023/03/06 05:52:28;;;;;;;1.23;1.23;;;;;1.20;94863.00;;;;5074058;28;20210;-61
2023/03/06 05:54:55;;;;;;;1.00;1.00;;;;;1.20;94869.00;;;;5073903;28;20234;-61
2023/03/06 05:57:23;;;;;;;1.50;1.40;;;;;1.10;94868.00;;;;5074007;28;20196;-61
2023/03/06 05:59:51;;;;;;;2.53;2.30;;;;;1.20;94866.00;;;;5073070;28;20607;-61
2023/03/06 06:02:19;;;;;;;1.13;1.13;;;;;1.20;94878.00;;;;5073903;28;20252;-61
2023/03/06 06:04:46;;;;;;;1.80;1.60;;;;;1.40;94875.00;;;;5074000;28;20203;-61
2023/03/06 06:07:15;;;;;;;1.90;1.80;;;;;1.30;94867.00;;;;5055601;28;20198;-61
2023/03/06 06:09:45;;;;;;;1.47;1.47;;;;;1.30;94868.00;;;;5073465;28;20218;-62
2023/03/06 06:12:13;;;;;;;1.03;1.03;;;;;1.00;94863.00;;;;5073449;28;20226;-61
2023/03/06 06:14:40;;;;;;;1.30;1.30;;;;;0.90;94870.00;;;;5073278;28;20229;-61
2023/03/06 06:17:09;;;;;;;2.27;2.17;;;;;0.90;94860.00;;;;5073314;28;20201;-61
2023/03/06 06:19:36;;;;;;;0.80;0.80;;;;;0.80;94858.00;;;;5073191;28;20624;-61
2023/03/06 06:22:04;;;;;;;2.27;2.07;;;;;0.80;94853.00;;;;5073792;28;20194;-61
2023/03/06 06:24:32;;;;;;;2.43;2.03;;;;;1.00;94858.00;;;;5073165;28;20638;-61
2023/03/06 06:27:01;;;;;;;2.13;1.97;;;;;1.00;94856.00;;;;5073188;28;20204;-61
2023/03/06 06:29:37;;;;;;;1.80;1.70;;;;;1.00;94871.00;;;;5073276;28;20241;-60
2023/03/06 06:32:05;;;;;;;1.60;1.50;;;;;1.20;94864.00;;;;5055173;28;20194;-60
2023/03/06 06:34:33;;;;;;;1.57;1.47;;;;;1.00;94872.00;;;;5073293;28;20225;-62
2023/03/06 06:37:00;;;;;;;1.37;1.27;;;;;1.00;94867.00;;;;5073292;28;20202;-62
2023/03/06 06:39:28;;;;;;;9.80;2.10;;;;;1.10;94868.00;;;;5073031;28;20224;-61
2023/03/06 06:41:56;;;;;;;1.37;1.30;;;;;1.10;94874.00;;;;5073009;28;20661;-61
2023/03/06 06:44:24;;;;;;;3.33;2.13;;;;;1.20;94879.00;;;;5073262;28;20236;-61
2023/03/06 06:46:52;;;;;;;1.83;1.73;;;;;1.30;94874.00;;;;5055043;28;20202;-62
2023/03/06 06:49:20;;;;;;;1.20;1.20;;;;;1.40;94875.00;;;;5072987;28;20284;-61
2023/03/06 06:51:47;;;;;;;3.13;1.60;;;;;1.50;94877.00;;;;5073501;28;20187;-61
2023/03/06 06:54:15;;;;;;;1.40;1.30;;;;;1.50;94882.00;;;;5073854;28;20214;-61
2023/03/06 06:56:42;;;;;;;1.50;1.40;;;;;1.60;94876.00;;;;5072885;28;20192;-61
2023/03/06 06:59:10;;;;;;;2.00;1.87;;;;;1.70;94885.00;;;;5072722;28;20720;-61
2023/03/06 07:01:39;;;;;;;4.67;2.73;;;;;1.80;94888.00;;;;5072982;28;20194;-61
2023/03/06 07:04:07;;;;;;;1.40;1.40;;;;;1.80;94888.00;;;;5072904;28;20193;-62
2023/03/06 07:06:34;;;;;;;1.27;1.27;;;;;1.80;94900.00;;;;5073521;28;20557;-62
2023/03/06 07:09:02;;;;;;;2.30;2.10;;;;;1.70;94884.00;;;;5072702;28;20222;-62
2023/03/06 07:11:30;;;;;;;1.07;1.07;;;;;1.50;94891.00;;;;5073847;28;20253;-62
2023/03/06 07:13:58;;;;;;;2.57;2.37;;;;;1.50;94900.00;;;;5058763;28;20605;-62
2023/03/06 07:16:26;;;;;;;1.20;1.20;;;;;1.70;94900.00;;;;5076826;28;20658;-61
2023/03/06 07:18:55;;;;;;;2.60;1.33;;;;;1.60;94895.00;;;;5058863;28;20313;-62
2023/03/06 07:21:22;;;;;;;1.27;1.27;;;;;1.80;94903.00;;;;5058645;28;20673;-61
2023/03/06 07:23:58;;;;;;;2.40;2.20;;;;;1.70;94904.00;;;;5076683;28;20192;-61
2023/03/06 07:26:26;;;;;;;1.60;1.50;;;;;1.80;94907.00;;;;5076547;28;20208;-61
2023/03/06 07:28:54;;;;;;;2.30;2.10;;;;;1.90;94901.00;;;;5076538;28;20207;-62
2023/03/06 07:31:23;;;;;;;1.77;1.67;;;;;2.00;94901.00;;;;5064838;28;20209;-63
2023/03/06 07:33:52;;;;;;;2.03;1.40;;;;;2.20;94901.00;;;;5070937;28;20223;-64
2023/03/06 07:36:22;;;;;;;1.70;1.63;;;;;2.20;94902.00;;;;5056273;28;20195;-63
2023/03/06 07:38:49;;;;;;;1.57;1.43;;;;;1.80;94896.00;;;;5074513;28;20245;-64
2023/03/06 07:41:19;;;;;;;2.20;1.73;;;;;1.90;94901.00;;;;5057235;28;20596;-64
2023/03/06 07:43:47;;;;;;;2.07;1.87;;;;;2.00;94903.00;;;;5070025;28;20223;-64
2023/03/06 07:46:16;;;;;;;3.33;1.93;;;;;1.90;94901.00;;;;5074485;28;20206;-70
2023/03/06 07:48:44;;;;;;;0.83;0.83;;;;;2.10;94899.00;;;;5056197;28;20229;-67
2023/03/06 07:51:15;;;;;;;2.20;2.10;;;;;2.00;94911.00;;;;5056316;28;20666;-62
2023/03/06 07:53:44;;;;;;;1.00;1.00;;;;;2.00;94905.00;;;;5072567;28;20228;-63
2023/03/06 07:56:12;;;;;;;1.00;1.00;;;;;2.00;94913.00;;;;5073744;28;20304;-63
2023/03/06 07:58:42;;;;;;;1.50;1.47;;;;;1.90;94912.00;;;;5074310;28;20280;-63
2023/03/06 08:01:12;;;;;;;1.57;1.50;;;;;1.90;94912.00;;;;5073991;28;20202;-63
2023/03/06 08:03:39;;;;;;;1.87;1.77;;;;;1.90;94912.00;;;;5074490;28;20563;-62
2023/03/06 08:06:09;;;;;;;2.20;2.10;;;;;1.80;94917.00;;;;5070439;28;20633;-63
2023/03/06 08:08:39;;;;;;;1.60;1.50;;;;;2.10;94918.00;;;;5074124;28;20298;-63
2023/03/06 08:11:08;;;;;;;1.50;1.50;;;;;2.20;94910.00;;;;5072121;28;20286;-62
2023/03/06 08:13:37;;;;;;;1.60;1.53;;;;;2.00;94906.00;;;;5054328;28;20222;-62
2023/03/06 08:16:05;;;;;;;2.60;2.40;;;;;1.90;94908.00;;;;5055837;28;20208;-62
2023/03/06 08:18:33;;;;;;;2.37;1.30;;;;;2.00;94898.00;;;;5073642;28;20215;-62
2023/03/06 08:21:04;;;;;;;2.67;1.63;;;;;2.30;94907.00;;;;5073667;28;20683;-63
2023/03/06 08:23:31;;;;;;;1.13;1.13;;;;;2.10;94908.00;;;;5072673;28;20364;-62
2023/03/06 08:26:00;;;;;;;1.00;1.00;;;;;2.10;94914.00;;;;5073646;28;20201;-63
2023/03/06 08:28:29;;;;;;;2.83;2.57;;;;;2.10;94915.00;;;;5073467;28;20225;-63
2023/03/06 08:30:57;;;;;;;1.43;1.43;;;;;2.00;94935.00;;;;5055518;28;20696;-63
2023/03/06 08:33:26;;;;;;;2.17;1.90;;;;;2.00;94924.00;;;;5072569;28;20193;-62
2023/03/06 08:35:54;;;;;;;2.23;1.37;;;;;2.00;94930.00;;;;5072972;28;20217;-63
2023/03/06 08:38:22;;;;;;;1.60;1.47;;;;;1.90;94927.00;;;;5071774;28;20202;-62
2023/03/06 08:40:49;;;;;;;1.73;1.67;;;;;2.10;94927.00;;;;5073245;28;20259;-63
2023/03/06 08:43:17;;;;;;;1.67;1.57;;;;;1.90;94930.00;;;;5073837;28;20202;-63
2023/03/06 08:45:51;;;;;;;4.47;1.73;;;;;1.90;94930.00;;;;5068901;28;20197;-63
2023/03/06 08:48:18;;;;;;;1.80;1.70;;;;;2.10;94930.00;;;;5073344;28;20686;-62
2023/03/06 08:50:46;;;;;;;1.77;1.30;;;;;2.20;94922.00;;;;5073117;28;20249;-62
2023/03/06 08:53:13;;;;;;;20.90;1.87;;;;;2.00;94918.00;;;;5073509;28;20209;-63
2023/03/06 08:55:41;;;;;;;1.90;1.80;;;;;2.30;94928.00;;;;5072996;28;20220;-62
2023/03/06 08:58:08;;;;;;;1.50;1.40;;;;;2.50;94934.00;;;;5055427;28;20251;-63
2023/03/06 09:00:36;;;;;;;1.17;1.17;;;;;2.60;94928.00;;;;5072566;28;20207;-63
2023/03/06 09:03:05;;;;;;;1.27;1.27;;;;;2.50;94931.00;;;;5073279;28;20206;-63
2023/03/06 09:05:33;;;;;;;1.40;1.40;;;;;2.30;94930.00;;;;5072502;28;20202;-63
2023/03/06 09:08:01;;;;;;;1.13;1.13;;;;;2.10;94923.00;;;;5053019;28;20268;-63
2023/03/06 09:10:28;;;;;;;1.10;1.10;;;;;2.10;94934.00;;;;5071916;28;20276;-63
2023/03/06 09:12:56;;;;;;;1.53;1.43;;;;;2.10;94932.00;;;;5071941;28;20249;-63
2023/03/06 09:15:25;;;;;;;1.13;1.13;;;;;2.10;94940.00;;;;5072169;28;20222;-63
2023/03/06 09:17:54;;;;;;;1.33;1.33;;;;;2.10;94942.00;;;;5073030;28;20276;-63
2023/03/06 09:20:23;;;;;;;1.07;1.07;;;;;1.90;94942.00;;;;5072099;28;20240;-63
2023/03/06 09:22:50;;;;;;;1.90;1.80;;;;;2.10;94947.00;;;;5072765;28;20204;-63
2023/03/06 09:25:20;;;;;;;2.13;2.00;;;;;2.10;94945.00;;;;5054240;28;20216;-63
2023/03/06 09:27:48;;;;;;;2.03;1.70;;;;;2.00;94954.00;;;;5072798;28;20209;-63
2023/03/06 09:30:17;;;;;;;3.13;2.03;;;;;2.00;94948.00;;;;5071939;28;20277;-63
2023/03/06 09:32:45;;;;;;;1.13;1.13;;;;;2.20;94951.00;;;;5072713;28;20194;-63
2023/03/06 09:35:14;;;;;;;0.80;0.80;;;;;2.20;94952.00;;;;5071288;28;20218;-63
2023/03/06 09:37:43;;;;;;;2.10;1.90;;;;;2.20;94961.00;;;;5072347;28;20230;-63
2023/03/06 09:40:18;;;;;;;1.40;1.40;;;;;2.30;94955.00;;;;5072093;28;20261;-63
2023/03/06 09:42:45;;;;;;;1.77;1.67;;;;;2.30;94956.00;;;;5072221;28;20201;-63
2023/03/06 09:45:13;;;;;;;3.13;2.83;;;;;2.30;94956.00;;;;5071918;28;20207;-61
2023/03/06 09:47:57;;;;;;;1.10;1.10;;;;;2.00;94960.00;;;;5071935;28;20701;-62
2023/03/06 09:50:32;;;;;;;1.33;1.33;;;;;2.20;94960.00;;;;5053956;28;20231;-62
2023/03/06 09:53:15;;;;;;;1.03;1.03;;;;;2.00;94951.00;;;;5053933;28;20202;-62
2023/03/06 09:55:45;;;;;;;2.87;1.73;;;;;2.10;94947.00;;;;5072123;28;20617;-62
2023/03/06 09:58:19;;;;;;;1.83;1.73;;;;;2.30;94947.00;;;;5072049;28;20198;-63
2023/03/06 10:00:55;;;;;;;1.20;1.20;;;;;2.50;94954.00;;;;5070176;22;20241;-65
2023/03/06 10:03:27;;;;;;;1.73;1.63;;;;;2.50;94953.00;;;;5051765;28;20219;-66
2023/03/06 10:06:02;;;;;;;3.00;1.37;;;;;2.50;94957.00;;;;5051824;28;20238;-64
2023/03/06 10:08:40;;;;;;;1.87;1.77;;;;;2.40;94949.00;;;;5050472;28;20279;-65
2023/03/06 10:11:10;;;;;;;1.43;1.33;;;;;2.60;94959.00;;;;5034184;28;20223;-65
2023/03/06 10:13:40;;;;;;;2.33;2.10;;;;;1.90;94958.00;;;;5022766;28;20203;-65
2023/03/06 10:16:25;;;;;;;2.23;2.10;;;;;2.20;94946.00;;;;5022943;28;20207;-64
2023/03/06 10:18:53;;;;;;;1.70;1.60;;;;;2.30;94945.00;;;;5030614;28;20206;-64
2023/03/06 10:21:47;;;;;;;1.43;1.43;;;;;2.10;94948.00;;;;5031558;28;20231;-65
2023/03/06 10:24:30;;;;;;;2.80;2.63;;;;;2.10;94960.00;;;;5031350;28;20222;-65
2023/03/06 10:27:05;;;;;;;2.50;1.60;;;;;2.10;94947.00;;;;5031209;28;20571;-65
2023/03/06 10:29:47;;;;;;;2.30;2.10;;;;;2.00;94955.00;;;;5031005;28;20226;-65
2023/03/06 10:32:25;;;;;;;1.70;1.60;;;;;2.20;94958.00;;;;5028170;28;20617;-65
2023/03/06 10:34:57;;;;;;;1.13;1.13;;;;;2.10;94961.00;;;;5031324;28;20343;-65
2023/03/06 10:37:24;;;;;;;2.53;1.50;;;;;2.10;94947.00;;;;5031468;28;20666;-65
2023/03/06 10:40:00;;;;;;;1.67;1.57;;;;;1.90;94954.00;;;;5029931;28;20696;-65
2023/03/06 10:42:28;;;;;;;1.93;1.83;;;;;1.90;94939.00;;;;5031303;28;20642;-65
2023/03/06 10:45:08;;;;;;;1.43;1.33;;;;;2.20;94933.00;;;;5031227;28;20192;-64
2023/03/06 10:47:37;;;;;;;1.40;1.40;;;;;2.10;94935.00;;;;5031028;28;20254;-64
2023/03/06 10:50:18;;;;;;;1.03;1.03;;;;;2.30;94935.00;;;;5029788;28;20721;-65
2023/03/06 10:52:57;;;;;;;4.17;1.87;;;;;2.10;94941.00;;;;5031256;28;20666;-65
2023/03/06 10:55:29;;;;;;;1.00;1.00;;;;;2.50;94946.00;;;;5024963;28;20204;-64
2023/03/06 10:57:57;;;;;;;2.37;2.17;;;;;2.60;94941.00;;;;5022900;28;20196;-64
2023/03/06 11:00:29;;;;;;;1.30;1.30;;;;;2.90;94936.00;;;;5030859;28;20231;-66
2023/03/06 11:03:16;;;;;;;2.97;2.77;;;;;2.70;94945.00;;;;5031017;28;20184;-65
2023/03/06 11:06:09;;;;;;;1.90;1.57;;;;;2.60;94905.00;;;;5031335;28;20594;-64
2023/03/06 11:08:36;;;;;;;2.60;2.07;;;;;2.70;94939.00;;;;5028260;28;20196;-64
2023/03/06 11:11:07;;;;;;;2.97;2.10;;;;;2.90;94938.00;;;;5031051;28;20219;-65
2023/03/06 11:13:37;;;;;;;2.17;1.90;;;;;3.50;94926.00;;;;5031045;28;20521;-65
2023/03/06 11:16:07;;;;;;;1.03;1.03;;;;;2.90;94930.00;;;;5031354;28;20212;-65
2023/03/06 11:18:40;;;;;;;1.00;1.00;;;;;2.90;94914.00;;;;5030887;28;20251;-65
2023/03/06 11:21:24;;;;;;;2.47;1.50;;;;;3.00;94918.00;;;;5030873;28;20223;-65
2023/03/06 11:23:53;;;;;;;1.47;1.33;;;;;3.10;94915.00;;;;5023736;28;20189;-64
2023/03/06 11:26:44;;;;;;;1.23;1.23;;;;;2.90;94917.00;;;;5029634;28;20212;-65
2023/03/06 11:29:29;;;;;;;1.27;1.27;;;;;3.20;94909.00;;;;5030844;28;20293;-65
2023/03/06 11:31:59;;;;;;;3.03;1.97;;;;;3.10;94922.00;;;;5015244;28;20672;-65
2023/03/06 11:34:38;;;;;;;1.90;1.73;;;;;3.20;94915.00;;;;5030866;28;20601;-67
2023/03/06 11:37:10;;;;;;;1.97;1.60;;;;;3.10;94904.00;;;;5028856;28;20673;-65
2023/03/06 11:39:46;;;;;;;2.70;2.43;;;;;3.10;94910.00;;;;5029384;28;20220;-68
2023/03/06 11:42:20;;;;;;;2.23;2.03;;;;;3.20;94896.00;;;;5022227;28;20211;-66
2023/03/06 11:44:56;;;;;;;1.20;1.20;;;;;3.60;94895.00;;;;5031055;28;20208;-68
2023/03/06 11:47:26;;;;;;;2.23;1.60;;;;;4.10;94900.00;;;;5025970;28;20189;-67
2023/03/06 11:50:04;;;;;;;2.10;2.00;;;;;4.30;94903.00;;;;5028974;28;20703;-68
2023/03/06 11:52:41;;;;;;;1.60;1.50;;;;;4.40;94893.00;;;;5029844;28;20552;-66
2023/03/06 11:55:16;;;;;;;1.37;1.37;;;;;4.10;94891.00;;;;5021788;28;20204;-69
2023/03/06 11:57:51;;;;;;;1.60;1.50;;;;;3.70;94887.00;;;;5023332;28;20192;-68
2023/03/06 12:00:29;;;;;;;1.50;1.40;;;;;4.10;94887.00;;;;5032912;28;20703;-69
2023/03/06 12:03:27;;;;;;;0.90;0.90;;;;;4.20;94888.00;;;;5034205;28;20193;-63
2023/03/06 12:06:02;;;;;;;2.37;1.60;;;;;4.30;94887.00;;;;5029946;28;20254;-71
2023/03/06 12:08:47;;;;;;;1.20;1.20;;;;;4.60;94875.00;;;;5034198;28;20196;-68
2023/03/06 12:11:20;;;;;;;1.20;1.20;;;;;4.70;94877.00;;;;5034357;28;20221;-68
2023/03/06 12:14:31;;;;;;;2.73;1.20;;;;;4.50;94885.00;;;;5034138;28;20199;-69
2023/03/06 12:17:09;;;;;;;1.73;1.63;;;;;4.50;94883.00;;;;5005935;28;20255;-66
2023/03/06 12:19:51;;;;;;;1.17;1.17;;;;;4.20;94888.00;;;;5033492;28;20224;-67
2023/03/06 12:22:29;;;;;;;1.37;1.37;;;;;4.00;94881.00;;;;5026431;28;20212;-68
2023/03/06 12:25:24;;;;;;;1.13;1.03;;;;;3.70;94892.00;;;;5029829;28;20204;-68
2023/03/06 12:28:06;;;;;;;0.90;0.90;;;;;3.60;94893.00;;;;5034198;28;20548;-67
2023/03/06 12:31:05;;;;;;;2.07;1.87;;;4.40;45.20;3.70;94883.00;;;;5031341;28;20239;-68
2023/03/06 12:33:39;;;;;;;1.43;1.37;;;;;3.40;94875.00;;;;5029856;28;20202;-68
2023/03/06 12:36:31;;;;;;;1.40;1.30;;;;;3.40;94850.00;;;;5032164;28;20223;-68
2023/03/06 12:39:16;;;;;;;1.97;1.67;;;;;3.50;94881.00;;;;5030872;28;20212;-68
2023/03/06 12:41:56;;;;;;;0.83;0.83;;;;;3.60;94889.00;;;;5033471;28;20647;-68